Time;durP1;ratioP1;P1;durP2;ratioP2;P2;SDS_P1;SDS_P2;PMS_P1;PMS_P2;Temp;Humidity;BMP_temperature;BMP_pressure;BME280_temperature;BME280_humidity;BME280_pressure;Samples;Min_cycle;Max_cycle;Signal;HPM_P1;HPM_P2
2022/02/12 00:00:32;;;;;;;0.20;0.20;;;;;;;-1.22;100.00;102320.47;5059912;28;20865;-73
2022/02/12 00:02:58;;;;;;;0.60;0.60;;;;;;;-1.23;100.00;102317.97;5073539;28;20421;-73
2022/02/12 00:05:24;;;;;;;0.40;0.40;;;;;;;-1.06;100.00;102326.63;5073152;28;20800;-73
2022/02/12 00:07:54;;;;;;;11.27;0.40;;;;;;;-0.92;100.00;102333.81;5073643;28;20170;-73
2022/02/12 00:10:20;;;;;;;4.73;0.73;;;;;;;-0.65;100.00;102330.41;5073357;28;20416;-73
2022/02/12 00:12:46;;;;;;;11.50;0.67;;;;;;;-0.56;100.00;102331.13;5072941;28;20416;-73
2022/02/12 00:15:12;;;;;;;0.00;0.00;;;;;;;-0.46;100.00;102344.22;5072583;28;20642;-74
2022/02/12 00:17:38;;;;;;;0.60;0.43;;;;;;;-0.26;100.00;102347.09;5072566;28;20202;-74
2022/02/12 00:20:05;;;;;;;2.57;0.77;;;;;;;-0.17;100.00;102341.38;5072668;28;20626;-73
2022/02/12 00:22:31;;;;;;;2.10;0.90;;;;;;;-0.10;100.00;102341.47;5072489;28;20163;-73
2022/02/12 00:24:56;;;;;;;2.00;1.63;;;;;;;-0.04;100.00;102346.03;5072131;28;20409;-75
2022/02/12 00:27:21;;;;;;;0.67;0.53;;;;;;;0.02;100.00;102347.13;5072511;28;20261;-73
2022/02/12 00:29:47;;;;;;;0.20;0.20;;;;;;;0.00;100.00;102347.34;5072462;28;20174;-75
2022/02/12 00:32:12;;;;;;;1.67;1.57;;;;;;;0.10;100.00;102353.19;5072325;28;20210;-73
2022/02/12 00:34:37;;;;;;;0.70;0.70;;;;;;;0.09;100.00;102342.63;5072296;28;20186;-73
2022/02/12 00:37:03;;;;;;;0.80;0.80;;;;;;;-0.02;100.00;102330.56;5071721;28;20202;-74
2022/02/12 00:39:29;;;;;;;0.83;0.83;;;;;;;-0.20;100.00;102336.41;5072653;28;20687;-73
2022/02/12 00:41:54;;;;;;;0.80;0.80;;;;;;;-0.28;100.00;102339.25;5072802;28;20274;-74
2022/02/12 00:44:20;;;;;;;0.40;0.40;;;;;;;-0.33;100.00;102329.06;5071192;28;20186;-73
2022/02/12 00:46:46;;;;;;;0.50;0.50;;;;;;;-0.35;100.00;102330.28;5070994;28;20186;-73
2022/02/12 00:49:11;;;;;;;0.00;0.00;;;;;;;-0.34;100.00;102326.56;5072701;28;20413;-74
2022/02/12 00:51:37;;;;;;;5.20;0.43;;;;;;;-0.31;100.00;102326.19;5074770;28;20182;-73
2022/02/12 00:54:02;;;;;;;3.70;0.97;;;;;;;-0.24;100.00;102324.41;5072593;28;20181;-74
2022/02/12 00:56:31;;;;;;;0.00;0.00;;;;;;;-0.15;100.00;102344.69;5072054;28;20288;-74
2022/02/12 00:58:57;;;;;;;0.13;0.10;;;;;;;0.03;100.00;102340.75;5072658;28;20178;-74
2022/02/12 01:01:23;;;;;;;0.10;0.10;;;;;;;0.10;100.00;102334.38;5072431;28;20417;-73
2022/02/12 01:03:48;;;;;;;0.10;0.10;;;;;;;0.10;100.00;102337.06;5072518;28;20167;-74
2022/02/12 01:06:14;;;;;;;5.83;0.77;;;;;;;0.10;100.00;102337.06;5072244;28;20432;-73
2022/02/12 01:08:39;;;;;;;0.10;0.10;;;;;;;0.09;100.00;102329.19;5072182;28;20541;-73
2022/02/12 01:11:05;;;;;;;0.80;0.33;;;;;;;0.10;100.00;102329.00;5072061;28;20225;-74
2022/02/12 01:13:31;;;;;;;0.73;0.73;;;;;;;0.09;100.00;102323.81;5070675;28;20174;-73
2022/02/12 01:15:56;;;;;;;1.10;0.10;;;;;;;0.11;100.00;102330.66;5071771;28;20273;-73
2022/02/12 01:18:22;;;;;;;2.53;0.27;;;;;;;0.09;100.00;102330.03;5071907;28;20599;-73
2022/02/12 01:20:47;;;;;;;0.30;0.30;;;;;;;0.09;100.00;102324.66;5071979;28;20163;-73
2022/02/12 01:23:12;;;;;;;3.87;1.60;;;;;;;0.11;100.00;102327.13;5071655;28;20208;-73
2022/02/12 01:25:38;;;;;;;4.30;0.63;;;;;;;0.13;100.00;102330.47;5071249;28;20179;-74
2022/02/12 01:28:03;;;;;;;0.70;0.60;;;;;;;0.15;100.00;102317.69;5071609;28;20170;-73
2022/02/12 01:30:29;;;;;;;1.53;1.37;;;;;;;0.15;100.00;102317.69;5071618;28;20167;-73
2022/02/12 01:32:54;;;;;;;3.30;0.20;;;;;;;0.21;100.00;102336.53;5071632;28;20205;-73
2022/02/12 01:35:23;;;;;;;0.20;0.20;;;;;;;0.17;100.00;102332.56;5071259;28;20511;-73
2022/02/12 01:37:49;;;;;;;1.17;1.17;;;;;;;0.20;100.00;102334.88;5071431;28;20686;-73
2022/02/12 01:40:15;;;;;;;0.57;0.33;;;;;;;0.31;100.00;102329.97;5071620;28;20420;-73
2022/02/12 01:42:40;;;;;;;0.47;0.47;;;;;;;0.33;100.00;102331.44;5071401;28;20440;-73
2022/02/12 01:45:06;;;;;;;2.63;0.80;;;;;;;0.28;100.00;102323.13;5071508;28;20206;-73
2022/02/12 01:47:31;;;;;;;0.37;0.33;;;;;;;0.26;100.00;102325.19;5071221;28;20194;-73
2022/02/12 01:49:57;;;;;;;3.73;0.57;;;;;;;0.25;100.00;102318.97;5071286;28;20170;-73
2022/02/12 01:52:23;;;;;;;0.40;0.40;;;;;;;0.24;100.00;102322.69;5071184;28;20634;-73
2022/02/12 01:54:49;;;;;;;0.87;0.87;;;;;;;0.20;100.00;102320.59;5071049;28;20217;-73
2022/02/12 01:57:15;;;;;;;0.23;0.23;;;;;;;0.16;100.00;102313.97;5071018;28;20967;-74
2022/02/12 01:59:40;;;;;;;0.63;0.23;;;;;;;0.21;100.00;102316.88;5071063;28;20181;-73
2022/02/12 02:02:07;;;;;;;4.50;0.87;;;;;;;0.25;100.00;102310.09;5070984;28;20171;-73
2022/02/12 02:04:33;;;;;;;0.63;0.63;;;;;;;0.19;99.87;102316.25;5070859;28;20232;-73
2022/02/12 02:06:59;;;;;;;0.37;0.37;;;;;;;0.21;99.50;102319.56;5070450;28;20423;-73
2022/02/12 02:09:28;;;;;;;0.73;0.37;;;;;;;0.15;99.91;102307.75;5070589;28;20462;-74
2022/02/12 02:11:54;;;;;;;0.97;0.93;;;;;;;0.12;100.00;102305.44;5070870;28;20806;-73
2022/02/12 02:14:19;;;;;;;2.13;0.57;;;;;;;0.14;100.00;102306.06;5070511;28;20421;-73
2022/02/12 02:16:45;;;;;;;1.57;0.70;;;;;;;0.11;100.00;102305.66;5069765;28;20386;-73
2022/02/12 02:19:11;;;;;;;0.60;0.60;;;;;;;0.10;100.00;102304.81;5070425;28;20220;-73
2022/02/12 02:21:39;;;;;;;1.03;0.70;;;;;;;0.07;100.00;102302.53;5069109;28;20261;-73
2022/02/12 02:24:06;;;;;;;0.77;0.40;;;;;;;0.01;100.00;102297.94;5070592;28;20896;-74
2022/02/12 02:26:32;;;;;;;5.90;1.47;;;;;;;-0.01;100.00;102303.50;5070479;28;20948;-73
2022/02/12 02:28:58;;;;;;;2.20;0.80;;;;;;;0.00;100.00;102298.97;5070552;28;20424;-74
2022/02/12 02:31:24;;;;;;;0.30;0.30;;;;;;;0.01;100.00;102291.75;5070458;28;20445;-73
2022/02/12 02:33:49;;;;;;;5.87;1.00;;;;;;;0.02;100.00;102293.41;5070455;28;20167;-73
2022/02/12 02:36:16;;;;;;;2.97;0.20;;;;;;;-0.03;100.00;102293.97;5070089;28;20460;-73
2022/02/12 02:38:42;;;;;;;9.27;1.30;;;;;;;-0.07;100.00;102281.97;5070215;28;20206;-73
2022/02/12 02:41:07;;;;;;;0.20;0.10;;;;;;;-0.07;100.00;102280.09;5070270;28;20559;-73
2022/02/12 02:43:32;;;;;;;0.83;0.40;;;;;;;-0.05;100.00;102285.28;5070628;28;20175;-73
2022/02/12 02:45:58;;;;;;;1.27;0.63;;;;;;;-0.02;100.00;102296.47;5068904;28;20586;-73
2022/02/12 02:48:23;;;;;;;1.30;0.80;;;;;;;0.00;100.00;102290.91;5069692;28;20171;-73
2022/02/12 02:56:17;;;;;;;2.63;0.53;;;;;;;-0.06;100.00;102283.63;5069841;28;20412;-73
2022/02/12 02:58:45;;;;;;;0.57;0.57;;;;;;;-0.05;100.00;102286.09;5069976;28;20464;-73
2022/02/12 03:01:22;;;;;;;0.60;0.60;;;;;;;-0.06;100.00;102292.50;5070139;28;20455;-73
2022/02/12 03:03:50;;;;;;;0.57;0.57;;;;;;;-0.05;100.00;102279.91;5069871;28;20928;-73
2022/02/12 03:06:17;;;;;;;0.10;0.10;;;;;;;-0.10;100.00;102288.56;5069771;28;20885;-73
2022/02/12 03:08:43;;;;;;;3.47;0.50;;;;;;;-0.14;100.00;102289.97;5069917;28;20932;-73
2022/02/12 03:11:10;;;;;;;0.13;0.13;;;;;;;-0.24;99.69;102286.78;5069815;28;20508;-73
2022/02/12 03:13:37;;;;;;;0.00;0.00;;;;;;;-0.33;100.00;102286.09;5070378;28;20449;-73
2022/02/12 03:16:03;;;;;;;0.47;0.47;;;;;;;-0.28;100.00;102292.75;5069453;28;20408;-73
2022/02/12 03:18:28;;;;;;;0.97;0.50;;;;;;;-0.27;100.00;102289.88;5069772;28;21145;-73
2022/02/12 03:20:54;;;;;;;0.57;0.30;;;;;;;-0.23;100.00;102279.56;5070097;28;20163;-73
2022/02/12 03:23:19;;;;;;;1.07;0.87;;;;;;;-0.19;100.00;102288.88;5069858;28;20167;-73
2022/02/12 03:25:45;;;;;;;0.30;0.30;;;;;;;-0.23;100.00;102284.94;5068100;28;20281;-73
2022/02/12 03:28:11;;;;;;;4.13;0.40;;;;;;;-0.26;99.92;102280.78;5071846;28;20202;-73
2022/02/12 03:30:39;;;;;;;1.07;0.63;;;;;;;-0.27;100.00;102286.34;5073361;28;20669;-74
2022/02/12 03:33:05;;;;;;;1.10;0.63;;;;;;;-0.27;100.00;102283.69;5073685;28;20434;-73
2022/02/12 03:35:32;;;;;;;3.80;0.73;;;;;;;-0.32;100.00;102274.31;5073302;28;20466;-73
2022/02/12 03:38:06;;;;;;;9.20;0.60;;;;;;;-0.34;99.75;102260.25;5073447;28;20467;-73
2022/02/12 03:40:33;;;;;;;8.63;0.90;;;;;;;-0.31;99.75;102270.59;5073303;28;20764;-73
2022/02/12 03:42:58;;;;;;;1.33;1.23;;;;;;;-0.32;99.68;102271.63;5073089;28;20428;-73
2022/02/12 03:45:23;;;;;;;2.00;1.90;;;;;;;-0.20;99.42;102271.13;5073154;28;20421;-73
2022/02/12 03:47:49;;;;;;;18.73;2.60;;;;;;;-0.19;98.88;102280.81;5073033;28;20642;-74
2022/02/12 03:50:15;;;;;;;11.60;3.63;;;;;;;-0.24;98.84;102273.38;5073126;28;20688;-73
2022/02/12 03:52:41;;;;;;;1.77;1.67;;;;;;;-0.37;98.39;102252.59;5073170;28;20424;-74
2022/02/12 03:55:08;;;;;;;1.50;0.90;;;;;;;-0.45;98.25;102263.47;5073083;28;20170;-74
2022/02/12 03:57:37;;;;;;;5.03;1.23;;;;;;;-0.60;98.29;102252.81;5073182;28;20186;-73
2022/02/12 04:00:11;;;;;;;0.70;0.70;;;;;;;-0.69;98.54;102245.94;5072818;28;20449;-74
2022/02/12 04:02:46;;;;;;;0.40;0.40;;;;;;;-0.77;98.72;102254.09;5073076;28;20424;-74
2022/02/12 04:05:14;;;;;;;0.27;0.23;;;;;;;-0.78;99.92;102240.88;5072939;28;20446;-74
2022/02/12 04:07:42;;;;;;;3.27;1.20;;;;;;;-0.74;99.80;102245.66;5072979;28;20409;-73
2022/02/12 04:10:11;;;;;;;0.57;0.37;;;;;;;-0.75;99.96;102246.69;5072941;28;20567;-73
2022/02/12 04:12:36;;;;;;;0.30;0.30;;;;;;;-0.72;99.92;102246.31;5072800;28;20409;-74
2022/02/12 04:15:02;;;;;;;4.07;0.97;;;;;;;-0.68;99.71;102252.97;5072464;28;20919;-74
2022/02/12 04:17:32;;;;;;;0.47;0.30;;;;;;;-0.63;98.81;102245.16;5072301;28;20209;-74
2022/02/12 04:20:01;;;;;;;0.27;0.27;;;;;;;-0.61;98.55;102245.78;5072373;28;20424;-74
2022/02/12 04:22:26;;;;;;;0.93;0.50;;;;;;;-0.53;97.88;102238.63;5072440;28;20551;-73
2022/02/12 04:24:52;;;;;;;0.20;0.20;;;;;;;-0.43;96.98;102245.34;5072091;28;20916;-74
2022/02/12 04:27:17;;;;;;;3.00;0.77;;;;;;;-0.37;96.33;102243.72;5072336;28;20254;-74
2022/02/12 04:29:43;;;;;;;0.20;0.20;;;;;;;-0.33;95.32;102243.13;5072697;28;20285;-73
2022/02/12 04:32:08;;;;;;;10.40;0.40;;;;;;;-0.26;94.44;102242.38;5072429;28;20505;-73
2022/02/12 04:34:34;;;;;;;0.60;0.60;;;;;;;-0.25;93.81;102242.16;5072409;28;20286;-74
2022/02/12 04:36:59;;;;;;;8.13;0.20;;;;;;;-0.23;93.28;102250.03;5072085;28;20248;-74
2022/02/12 04:39:24;;;;;;;0.73;0.37;;;;;;;-0.21;93.43;102242.59;5071803;28;20175;-74
2022/02/12 04:41:50;;;;;;;0.73;0.50;;;;;;;-0.17;92.47;102250.06;5072120;28;20536;-74
2022/02/12 04:44:15;;;;;;;4.07;1.33;;;;;;;-0.11;92.70;102251.16;5072258;28;20179;-74
2022/02/12 04:46:40;;;;;;;2.53;0.57;;;;;;;-0.09;91.86;102247.25;5071558;28;20255;-74
2022/02/12 04:49:06;;;;;;;1.80;0.53;;;;;;;-0.05;91.05;102236.91;5071993;28;20249;-74
2022/02/12 04:51:32;;;;;;;4.00;2.60;;;;;;;-0.05;90.56;102237.75;5071917;28;20180;-74
2022/02/12 04:53:59;;;;;;;3.07;0.50;;;;;;;-0.01;89.64;102241.69;5072025;28;20441;-74
2022/02/12 04:56:25;;;;;;;1.13;0.93;;;;;;;0.02;89.29;102242.34;5071612;28;20427;-74
2022/02/12 04:58:51;;;;;;;1.00;0.60;;;;;;;0.04;88.79;102235.75;5070494;28;20435;-74
2022/02/12 05:01:20;;;;;;;0.30;0.30;;;;;;;0.01;88.25;102236.16;5071698;28;20508;-74
2022/02/12 05:03:49;;;;;;;0.70;0.60;;;;;;;-0.03;87.98;102229.50;5071760;28;20428;-75
2022/02/12 05:06:18;;;;;;;1.10;0.60;;;;;;;0.00;88.28;102231.81;5071409;28;20505;-74
2022/02/12 05:08:44;;;;;;;1.00;1.00;;;;;;;0.05;87.71;102234.72;5071550;28;20416;-74
2022/02/12 05:11:10;;;;;;;1.70;0.60;;;;;;;0.11;86.28;102216.97;5071573;28;21001;-74
2022/02/12 05:13:36;;;;;;;1.53;0.37;;;;;;;0.16;85.73;102220.75;5071792;28;20185;-74
2022/02/12 05:16:02;;;;;;;0.10;0.10;;;;;;;0.14;85.18;102220.06;5071468;28;20774;-74
2022/02/12 05:18:28;;;;;;;0.50;0.50;;;;;;;0.17;85.10;102221.56;5071396;28;20225;-74
2022/02/12 05:20:53;;;;;;;2.80;1.57;;;;;;;0.15;85.03;102218.25;5071329;28;20425;-74
2022/02/12 05:23:18;;;;;;;5.00;0.77;;;;;;;0.15;84.42;102212.88;5071316;28;20205;-74
2022/02/12 05:25:44;;;;;;;3.07;0.53;;;;;;;0.16;84.16;102214.53;5070950;28;20218;-74
2022/02/12 05:28:09;;;;;;;2.70;1.10;;;;;;;0.15;84.57;102211.03;5071254;28;20257;-74
2022/02/12 05:30:34;;;;;;;0.47;0.47;;;;;;;0.15;83.94;102205.66;5071062;28;20200;-74
2022/02/12 05:33:00;;;;;;;0.37;0.30;;;;;;;0.22;83.52;102209.19;5071287;28;20182;-74
2022/02/12 05:35:26;;;;;;;1.17;0.57;;;;;;;0.27;82.73;102219.31;5070834;28;20178;-74
2022/02/12 05:37:52;;;;;;;4.50;1.93;;;;;;;0.24;82.83;102214.34;5071004;28;20248;-74
2022/02/12 05:40:17;;;;;;;0.67;0.47;;;;;;;0.17;82.47;102214.34;5070887;28;20444;-74
2022/02/12 05:42:42;;;;;;;6.00;1.03;;;;;;;0.14;83.02;102214.72;5071003;28;20175;-74
2022/02/12 05:45:08;;;;;;;3.13;0.93;;;;;;;0.18;83.11;102216.00;5070647;28;20261;-74
2022/02/12 05:47:38;;;;;;;1.40;0.57;;;;;;;0.18;82.96;102205.25;5070990;28;20258;-75
2022/02/12 05:50:04;;;;;;;0.67;0.47;;;;;;;0.15;82.45;102213.72;5069696;28;20197;-74
2022/02/12 05:52:29;;;;;;;0.73;0.50;;;;;;;0.20;81.92;102213.94;5070750;28;20416;-73
2022/02/12 05:54:55;;;;;;;0.73;0.63;;;;;;;0.24;81.64;102214.34;5070364;28;20254;-74
2022/02/12 05:57:20;;;;;;;1.47;1.37;;;;;;;0.29;81.14;102211.91;5070949;28;20201;-74
2022/02/12 05:59:45;;;;;;;5.13;0.73;;;;;;;0.29;80.89;102212.75;5070942;28;20497;-74
2022/02/12 06:02:11;;;;;;;0.57;0.43;;;;;;;0.32;80.76;102206.13;5070615;28;20179;-74
2022/02/12 06:04:36;;;;;;;3.13;0.50;;;;;;;0.30;80.93;102213.56;5070651;28;20171;-74
2022/02/12 06:07:02;;;;;;;1.23;0.73;;;;;;;0.26;80.95;102201.53;5070958;28;20181;-75
2022/02/12 06:09:28;;;;;;;0.23;0.23;;;;;;;0.27;81.18;102187.91;5070595;28;20170;-74
2022/02/12 06:11:53;;;;;;;1.83;0.70;;;;;;;0.28;81.63;102196.78;5070531;28;20409;-75
2022/02/12 06:14:19;;;;;;;1.33;0.67;;;;;;;0.25;81.10;102186.44;5070561;28;20170;-74
2022/02/12 06:16:44;;;;;;;0.40;0.40;;;;;;;0.29;81.34;102191.25;5070213;28;20175;-75
2022/02/12 06:19:10;;;;;;;5.90;0.50;;;;;;;0.28;81.87;102191.41;5070497;28;20179;-74
2022/02/12 06:21:35;;;;;;;0.70;0.70;;;;;;;0.22;81.61;102182.31;5070321;28;20170;-74
2022/02/12 06:24:00;;;;;;;1.03;0.60;;;;;;;0.23;81.75;102180.44;5070849;28;20182;-74
2022/02/12 06:26:26;;;;;;;2.73;0.47;;;;;;;0.22;82.39;102182.31;5070088;28;20187;-74
2022/02/12 06:28:52;;;;;;;3.87;0.40;;;;;;;0.23;81.87;102186.66;5070479;28;20178;-74
2022/02/12 06:31:17;;;;;;;0.97;0.50;;;;;;;0.21;82.35;102174.44;5070197;28;20166;-75
2022/02/12 06:33:42;;;;;;;1.30;0.60;;;;;;;0.24;82.45;102172.19;5069199;28;20181;-74
2022/02/12 06:36:08;;;;;;;1.20;0.67;;;;;;;0.18;81.98;102170.31;5069955;28;20630;-74
2022/02/12 06:38:33;;;;;;;3.47;1.53;;;;;;;0.17;82.62;102170.50;5070093;28;20209;-74
2022/02/12 06:40:59;;;;;;;1.10;0.77;;;;;;;0.12;81.82;102162.19;5070188;28;20490;-74
2022/02/12 06:43:24;;;;;;;6.03;0.90;;;;;;;0.10;82.17;102154.34;5069791;28;20642;-74
2022/02/12 06:45:49;;;;;;;5.40;1.13;;;;;;;0.10;82.08;102161.56;5069553;28;20175;-74
2022/02/12 06:48:15;;;;;;;1.90;0.50;;;;;;;0.08;81.81;102158.25;5070047;28;20526;-74
2022/02/12 06:50:40;;;;;;;1.10;0.63;;;;;;;0.11;82.30;102158.69;5070084;28;20186;-74
2022/02/12 06:53:06;;;;;;;0.83;0.50;;;;;;;0.19;81.49;102155.84;5070084;28;20166;-75
2022/02/12 06:55:31;;;;;;;1.93;0.60;;;;;;;0.19;81.56;102157.69;5069852;28;20178;-75
2022/02/12 06:57:56;;;;;;;1.90;0.40;;;;;;;0.15;81.00;102156.44;5070007;28;20696;-75
2022/02/12 07:00:22;;;;;;;1.53;0.77;;;;;;;0.15;81.45;102161.81;5069950;28;20638;-74
2022/02/12 07:02:50;;;;;;;1.07;0.60;;;;;;;0.08;81.33;102155.56;5073263;28;20177;-73
2022/02/12 07:05:16;;;;;;;1.90;0.97;;;;;;;0.09;81.42;102159.91;5073894;28;20178;-74
2022/02/12 07:07:46;;;;;;;3.10;0.60;;;;;;;0.13;81.77;102163.84;5073528;28;20477;-73
2022/02/12 07:10:13;;;;;;;0.97;0.80;;;;;;;0.18;80.90;102173.00;5073801;28;20170;-73
2022/02/12 07:12:38;;;;;;;3.40;0.70;;;;;;;0.26;80.79;102171.97;5073847;28;20963;-74
2022/02/12 07:15:04;;;;;;;3.10;0.30;;;;;;;0.31;80.75;102174.09;5073738;28;20516;-75
2022/02/12 07:17:30;;;;;;;1.23;1.13;;;;;;;0.34;80.53;102177.19;5073560;28;20678;-74
2022/02/12 07:19:55;;;;;;;5.87;3.07;;;;;;;0.37;80.39;102171.41;5073759;28;20170;-74
2022/02/12 07:22:26;;;;;;;0.60;0.60;;;;;;;0.34;80.88;102161.06;5073659;28;20536;-75
2022/02/12 07:24:52;;;;;;;0.73;0.67;;;;;;;0.42;80.31;102178.84;5073599;28;20185;-74
2022/02/12 07:27:17;;;;;;;2.97;0.77;;;;;;;0.45;80.53;102182.00;5073639;28;20875;-74
2022/02/12 07:29:42;;;;;;;4.07;0.87;;;;;;;0.46;80.40;102183.66;5073569;28;20440;-74
2022/02/12 07:32:08;;;;;;;2.67;1.00;;;;;;;0.58;80.12;102178.53;5073419;28;20184;-74
2022/02/12 07:34:33;;;;;;;1.30;0.77;;;;;;;0.62;79.71;102184.31;5073319;28;20208;-75
2022/02/12 07:36:58;;;;;;;2.57;0.80;;;;;;;0.64;80.10;102187.63;5073241;28;20233;-74
2022/02/12 07:39:25;;;;;;;0.50;0.50;;;;;;;0.68;79.53;102192.41;5073426;28;20178;-74
2022/02/12 07:41:50;;;;;;;0.63;0.47;;;;;;;0.73;79.12;102197.19;5073341;28;20351;-74
2022/02/12 07:44:16;;;;;;;0.67;0.57;;;;;;;0.77;79.07;102187.66;5073313;28;20967;-74
2022/02/12 07:46:41;;;;;;;0.70;0.60;;;;;;;0.80;78.85;102198.03;5073094;28;20204;-74
2022/02/12 07:49:06;;;;;;;2.67;1.00;;;;;;;0.82;78.60;102195.94;5073233;28;20537;-75
2022/02/12 07:51:32;;;;;;;1.67;0.70;;;;;;;0.85;78.52;102192.84;5073287;28;20189;-73
2022/02/12 07:53:57;;;;;;;0.50;0.50;;;;;;;0.91;77.76;102188.53;5073177;28;20649;-74
2022/02/12 07:56:23;;;;;;;11.20;2.90;;;;;;;0.89;78.12;102176.13;5072828;28;20177;-74
2022/02/12 07:58:49;;;;;;;3.67;1.63;;;;;;;0.99;77.81;102185.63;5073069;28;20328;-74
2022/02/12 08:01:14;;;;;;;2.20;1.87;;;;;;;1.05;77.43;102190.22;5073570;28;20210;-74
2022/02/12 08:03:40;;;;;;;4.13;1.10;;;;;;;1.07;77.58;102180.06;5073315;28;20689;-74
2022/02/12 08:07:27;;;;;;;18.47;4.57;;;;;;;1.10;77.02;102177.78;5073143;28;20193;-74
2022/02/12 08:08:51;;;;;;;2.63;0.90;;;;;;;1.18;76.64;102166.81;5072778;28;20191;-74
2022/02/12 08:11:27;;;;;;;2.70;0.63;;;;;;;1.21;76.49;102179.03;5073602;28;20421;-74
2022/02/12 08:13:52;;;;;;;3.37;1.13;;;;;;;1.26;75.59;102159.56;5072077;28;20207;-75
2022/02/12 08:16:19;;;;;;;5.50;2.00;;;;;;;1.27;75.70;102161.22;5072952;28;20182;-73
2022/02/12 08:18:44;;;;;;;1.80;0.30;;;;;;;1.34;75.30;102162.06;5073162;28;20829;-74
2022/02/12 08:21:10;;;;;;;4.20;1.67;;;;;;;1.37;74.86;102167.84;5071380;28;20174;-73
2022/02/12 08:23:36;;;;;;;0.73;0.70;;;;;;;1.44;74.61;102170.53;5072641;28;20250;-74
2022/02/12 08:26:01;;;;;;;3.33;0.83;;;;;;;1.51;73.99;102176.75;5072241;28;20669;-73
2022/02/12 08:28:27;;;;;;;0.73;0.73;;;;;;;1.54;73.64;102160.16;5072608;28;20178;-74
2022/02/12 08:30:54;;;;;;;11.13;2.83;;;;;;;1.57;73.45;102169.69;5072366;28;20174;-74
2022/02/12 08:33:20;;;;;;;0.63;0.63;;;;;;;1.63;73.51;102168.88;5072508;28;20642;-74
2022/02/12 08:35:45;;;;;;;3.20;1.00;;;;;;;1.69;72.60;102176.09;5072135;28;20175;-74
2022/02/12 08:38:11;;;;;;;9.23;2.73;;;;;;;1.76;72.29;102176.94;5072458;28;20233;-74
2022/02/12 08:40:37;;;;;;;3.13;0.90;;;;;;;1.76;71.79;102180.47;5072404;28;20167;-75
2022/02/12 08:43:03;;;;;;;4.33;1.43;;;;;;;1.78;72.57;102185.63;5072322;28;20232;-76
2022/02/12 08:45:28;;;;;;;3.23;1.67;;;;;;;1.84;72.36;102183.94;5072496;28;20174;-75
2022/02/12 08:47:53;;;;;;;5.03;1.00;;;;;;;1.90;72.13;102180.44;5072215;28;20174;-76
2022/02/12 08:50:19;;;;;;;11.53;3.80;;;;;;;1.96;72.44;102184.97;5072441;28;20261;-76
2022/02/12 08:52:44;;;;;;;7.37;1.47;;;;;;;1.93;72.17;102180.00;5072156;28;20175;-75
2022/02/12 08:55:11;;;;;;;1.23;0.93;;;;;;;2.01;72.26;102174.38;5071827;28;20507;-74
2022/02/12 08:57:37;;;;;;;2.03;1.13;;;;;;;2.07;72.29;102177.06;5071872;28;20203;-72
2022/02/12 09:00:08;;;;;;;3.43;0.97;;;;;;;2.02;72.88;102162.53;5071858;28;20247;-72
2022/02/12 09:02:34;;;;;;;3.50;0.83;;;;;;;2.04;73.00;102161.31;5072036;28;20574;-72
2022/02/12 09:05:00;;;;;;;1.73;0.80;;;;;;;2.00;73.17;102153.84;5071602;28;20231;-72
2022/02/12 09:07:25;;;;;;;1.07;0.80;;;;;;;2.04;73.37;102147.00;5070606;28;20178;-72
2022/02/12 09:09:50;;;;;;;2.20;0.40;;;;;;;2.07;72.95;102165.44;5061494;28;20178;-72
2022/02/12 09:12:17;;;;;;;0.30;0.13;;;;;;;2.16;72.95;102163.31;5068137;28;20179;-72
2022/02/12 09:14:42;;;;;;;0.10;0.10;;;;;;;2.23;73.20;102151.50;5071091;28;20650;-72
2022/02/12 09:17:08;;;;;;;1.07;0.70;;;;;;;2.29;72.96;102157.88;5071592;28;20206;-72
2022/02/12 09:19:34;;;;;;;1.57;1.20;;;;;;;2.31;73.22;102151.22;5071572;28;20663;-73
2022/02/12 09:22:00;;;;;;;4.33;0.90;;;;;;;2.42;73.52;102155.13;5071445;28;20255;-73
2022/02/12 09:24:25;;;;;;;2.87;0.80;;;;;;;2.52;72.67;102143.88;5071387;28;20269;-73
2022/02/12 09:26:50;;;;;;;4.87;1.10;;;;;;;2.62;72.82;102149.66;5071090;28;20650;-73
2022/02/12 09:29:16;;;;;;;0.30;0.30;;;;;;;2.71;72.57;102136.72;5071161;28;20175;-72
2022/02/12 09:31:41;;;;;;;2.83;0.97;;;;;;;2.77;72.49;102144.78;5070936;28;20658;-72
2022/02/12 09:34:08;;;;;;;1.30;0.70;;;;;;;2.86;72.14;102140.75;5071159;28;20539;-73
2022/02/12 09:36:33;;;;;;;1.93;0.67;;;;;;;2.88;72.04;102143.22;5066598;28;20178;-73
2022/02/12 09:38:59;;;;;;;2.37;2.03;;;;;;;3.08;71.81;102140.41;5071363;28;20219;-72
2022/02/12 09:41:27;;;;;;;5.80;1.00;;;;;;;3.11;72.42;102135.38;5071495;28;20175;-72
2022/02/12 09:43:54;;;;;;;0.67;0.40;;;;;;;3.14;71.72;102139.53;5071735;28;20185;-72
2022/02/12 09:46:32;;;;;;;1.80;0.10;;;;;;;3.13;71.34;102133.28;5071324;28;20174;-72
2022/02/12 09:48:58;;;;;;;0.20;0.17;;;;;;;3.15;71.02;102124.97;5071560;28;20186;-72
2022/02/12 09:51:26;;;;;;;2.97;0.87;;;;;;;3.06;71.64;102115.50;5070224;28;20673;-72
2022/02/12 09:53:51;;;;;;;5.97;1.40;;;;;;;3.09;72.16;102107.78;5071344;28;20569;-73
2022/02/12 09:56:17;;;;;;;1.23;0.40;;;;;;;3.22;72.26;102121.19;5071101;28;20178;-72
2022/02/12 09:58:42;;;;;;;1.37;0.90;;;;;;;3.33;72.38;102132.28;5071096;28;20198;-72
2022/02/12 10:01:08;;;;;;;2.40;0.93;;;;;;;3.28;72.30;102117.56;5071227;28;20171;-72
2022/02/12 10:03:34;;;;;;;2.77;0.77;;;;;;;3.37;72.62;102106.50;5071445;28;20175;-72
2022/02/12 10:05:59;;;;;;;2.37;0.27;;;;;;;3.47;72.91;102104.09;5070920;28;20205;-73
2022/02/12 10:08:25;;;;;;;2.00;1.00;;;;;;;3.49;73.58;102100.16;5071244;28;20182;-73
2022/02/12 10:10:51;;;;;;;0.57;0.37;;;;;;;3.49;73.51;102105.56;5071478;28;20202;-72
2022/02/12 10:13:19;;;;;;;2.27;0.60;;;;;;;3.43;73.41;102095.63;5068031;28;20177;-72
2022/02/12 10:15:47;;;;;;;2.43;2.03;;;;;;;3.56;73.50;102098.19;5062592;28;20175;-73
2022/02/12 10:18:13;;;;;;;0.07;0.00;;;;;;;3.52;72.76;102090.75;5070492;28;20289;-73
2022/02/12 10:20:41;;;;;;;0.40;0.40;;;;;;;3.55;72.53;102076.81;5070757;28;20201;-72
2022/02/12 10:23:18;;;;;;;1.93;0.70;;;;;;;3.56;72.15;102087.38;5070795;28;20181;-72
2022/02/12 10:25:47;;;;;;;0.97;0.97;;;;;;;3.70;72.76;102098.88;5070779;28;20178;-72
2022/02/12 10:28:14;;;;;;;1.60;1.07;;;;;;;3.83;72.92;102092.50;5070839;28;20193;-73
2022/02/12 10:30:43;;;;;;;3.13;0.93;;;;;;;3.76;72.60;102083.63;5070202;28;20261;-73
2022/02/12 10:33:09;;;;;;;1.20;0.67;;;;;;;3.81;73.47;102081.09;5070827;28;20171;-73
2022/02/12 10:35:37;;;;;;;0.53;0.53;;;;;;;3.61;72.29;102069.66;5070338;28;20168;-72
2022/02/12 10:38:06;;;;;;;2.77;1.67;;;;;;;3.55;72.67;102068.69;5070708;28;20206;-72
2022/02/12 10:40:33;;;;;;;0.23;0.23;;;;;;;3.53;72.38;102063.50;5070766;28;20170;-72
2022/02/12 10:42:59;;;;;;;0.73;0.53;;;;;;;3.61;73.29;102048.88;5070892;28;20198;-72
2022/02/12 10:45:26;;;;;;;15.20;1.07;;;;;;;3.77;73.08;102060.97;5070394;28;20217;-72
2022/02/12 10:47:53;;;;;;;0.07;0.07;;;;;;;3.74;72.41;102047.88;5070799;28;20169;-72
2022/02/12 10:50:21;;;;;;;1.10;0.57;;;;;;;3.74;71.98;102047.88;5070647;28;20170;-73
2022/02/12 10:52:49;;;;;;;2.90;1.30;;;;;;;3.77;72.31;102032.06;5069643;28;20213;-72
2022/02/12 10:55:46;;;;;;;3.17;0.27;;;;;;;3.82;72.30;102034.91;5068071;28;20179;-72
2022/02/12 10:58:13;;;;;;;0.53;0.53;;;;;;;3.82;71.13;102026.78;5058181;28;20213;-72
2022/02/12 11:00:41;;;;;;;0.20;0.20;;;;;;;3.81;71.08;102043.25;5070718;28;20255;-71
2022/02/12 11:03:10;;;;;;;1.40;1.30;;;;;;;3.92;71.24;102034.38;5070943;28;20697;-72
2022/02/12 11:05:38;;;;;;;0.33;0.33;;;;;;;3.97;70.73;102042.63;5070862;28;20527;-71
2022/02/12 11:08:06;;;;;;;0.13;0.13;;;;;;;3.99;70.71;102031.56;5070753;28;20174;-71
2022/02/12 11:10:32;;;;;;;4.60;0.93;;;;;;;4.03;70.86;102028.16;5070947;28;20526;-72
2022/02/12 11:12:59;;;;;;;0.40;0.40;;;;;;;4.02;70.00;102023.81;5070931;28;20179;-72
2022/02/12 11:15:27;;;;;;;7.77;0.70;;;;;;;3.88;70.15;102027.75;5070687;28;20171;-71
2022/02/12 11:17:54;;;;;;;0.00;0.00;;;;;;;3.85;70.49;102012.81;5069516;28;20591;-72
2022/02/12 11:20:21;;;;;;;7.10;0.40;;;;;;;3.94;70.99;102007.94;5070488;28;20175;-72
2022/02/12 11:22:50;;;;;;;0.83;0.50;;;;;;;4.16;71.24;102016.34;5070331;28;20171;-72
2022/02/12 11:25:38;;;;;;;0.83;0.30;;;;;;;4.23;69.75;102002.75;5070030;28;20549;-72
2022/02/12 11:28:09;;;;;;;0.33;0.17;;;;;;;4.29;69.91;102001.81;5070258;28;20171;-72
2022/02/12 11:30:37;;;;;;;2.53;0.50;;;;;;;4.41;68.86;102000.78;5069747;28;20175;-72